createdAt,value
2022-10-31T00:01:24.908Z,3.60
2022-10-31T00:03:58.642Z,3.70
2022-10-31T00:06:43.053Z,3.50
2022-10-31T00:09:11.215Z,3.78
2022-10-31T00:11:38.094Z,3.42
2022-10-31T00:14:08.851Z,3.72
2022-10-31T00:16:35.665Z,3.80
2022-10-31T00:19:04.556Z,3.25
2022-10-31T00:21:32.226Z,3.33
2022-10-31T00:23:59.813Z,3.30
2022-10-31T00:26:29.150Z,3.40
2022-10-31T00:28:55.975Z,3.25
2022-10-31T00:31:22.780Z,3.13
2022-10-31T00:33:50.136Z,2.90
2022-10-31T00:36:20.267Z,3.40
2022-10-31T00:38:48.446Z,3.00
2022-10-31T00:41:17.095Z,2.72
2022-10-31T00:43:44.764Z,2.90
2022-10-31T00:46:12.825Z,3.00
2022-10-31T00:48:39.913Z,3.25
2022-10-31T00:51:07.501Z,2.92
2022-10-31T00:53:34.394Z,3.05
2022-10-31T00:56:01.708Z,2.70
2022-10-31T00:58:28.859Z,3.03
2022-10-31T01:00:56.384Z,2.88
2022-10-31T01:03:25.848Z,2.88
2022-10-31T01:06:05.436Z,2.83
2022-10-31T01:08:33.887Z,2.75
2022-10-31T01:11:15.771Z,2.70
2022-10-31T01:13:43.239Z,2.90
2022-10-31T01:16:12.765Z,3.15
2022-10-31T01:18:39.876Z,2.70
2022-10-31T01:21:14.444Z,3.00
2022-10-31T01:23:41.924Z,3.20
2022-10-31T01:26:08.654Z,3.17
2022-10-31T01:28:37.423Z,3.00
2022-10-31T01:31:15.660Z,3.10
2022-10-31T01:33:43.644Z,3.08
2022-10-31T01:36:21.405Z,3.20
2022-10-31T01:38:52.984Z,2.97
2022-10-31T01:41:22.755Z,2.90
2022-10-31T01:43:56.531Z,3.10
2022-10-31T01:46:33.495Z,3.15
2022-10-31T01:49:03.170Z,2.80
2022-10-31T01:51:35.620Z,3.20
2022-10-31T01:54:07.535Z,3.47
2022-10-31T01:56:37.267Z,3.28
2022-10-31T01:59:08.626Z,3.30
2022-10-31T02:01:36.400Z,2.78
2022-10-31T02:04:03.404Z,2.58
2022-10-31T02:06:43.326Z,3.00
2022-10-31T02:09:14.897Z,2.47
2022-10-31T02:11:48.586Z,3.30
2022-10-31T02:14:15.641Z,3.20
2022-10-31T02:16:42.627Z,3.60
2022-10-31T02:19:13.278Z,3.30
2022-10-31T02:22:17.042Z,3.17
2022-10-31T02:25:11.594Z,2.85
2022-10-31T02:27:57.323Z,3.22
2022-10-31T02:30:42.572Z,3.17
2022-10-31T02:33:25.593Z,2.72
2022-10-31T02:36:30.071Z,3.30
2022-10-31T02:39:20.638Z,3.08
2022-10-31T02:42:10.808Z,3.15
2022-10-31T02:44:50.958Z,3.05
2022-10-31T02:47:20.685Z,3.40
2022-10-31T02:49:58.050Z,3.00
2022-10-31T02:52:40.341Z,2.97
2022-10-31T02:55:30.055Z,3.00
2022-10-31T02:58:10.538Z,2.97
2022-10-31T03:00:57.511Z,2.85
2022-10-31T03:03:24.340Z,2.60
2022-10-31T03:05:51.207Z,2.90
2022-10-31T03:08:27.415Z,2.92
2022-10-31T03:10:57.147Z,3.05
2022-10-31T03:13:46.245Z,2.95
2022-10-31T03:16:28.097Z,2.80
2022-10-31T03:19:08.191Z,3.35
2022-10-31T03:22:00.702Z,3.45
2022-10-31T03:24:32.934Z,3.20
2022-10-31T03:27:01.590Z,3.05
2022-10-31T03:29:35.589Z,3.05
2022-10-31T03:32:20.724Z,2.92
2022-10-31T03:34:50.548Z,2.85
2022-10-31T03:37:21.755Z,2.90
2022-10-31T03:39:50.424Z,3.00
2022-10-31T03:42:31.025Z,3.10
2022-10-31T03:45:04.394Z,3.10
2022-10-31T03:47:31.808Z,2.90
2022-10-31T03:50:00.382Z,3.10
2022-10-31T03:52:29.374Z,3.20
2022-10-31T03:55:10.432Z,3.47
2022-10-31T03:57:45.058Z,3.13
2022-10-31T04:00:16.996Z,2.90
2022-10-31T04:02:54.706Z,3.35
2022-10-31T04:05:22.395Z,2.97
2022-10-31T04:07:55.932Z,3.17
2022-10-31T04:10:28.634Z,3.33
2022-10-31T04:13:09.800Z,3.30
2022-10-31T04:15:50.534Z,3.22
2022-10-31T04:18:18.471Z,3.20
2022-10-31T04:20:45.318Z,2.92
2022-10-31T04:23:26.297Z,3.30
2022-10-31T04:25:54.056Z,2.90
2022-10-31T04:28:33.512Z,3.10
2022-10-31T04:31:00.771Z,3.15
2022-10-31T04:33:28.264Z,3.08
2022-10-31T04:35:55.755Z,2.70
2022-10-31T04:38:22.711Z,2.95
2022-10-31T04:40:50.343Z,2.95
2022-10-31T04:43:55.760Z,3.63
2022-10-31T04:46:22.639Z,3.80
2022-10-31T04:48:49.626Z,3.70
2022-10-31T04:51:30.523Z,3.20
2022-10-31T04:54:04.650Z,3.85
2022-10-31T04:57:06.686Z,3.33
2022-10-31T04:59:46.533Z,3.20
2022-10-31T05:02:20.297Z,3.20
2022-10-31T05:04:54.129Z,3.10
2022-10-31T05:07:21.309Z,2.90
2022-10-31T05:09:48.155Z,2.75
2022-10-31T05:12:14.897Z,2.83
2022-10-31T05:15:00.228Z,2.90
2022-10-31T05:17:50.399Z,3.08
2022-10-31T05:20:36.461Z,2.88
2022-10-31T05:23:16.901Z,2.88
2022-10-31T05:25:43.948Z,2.80
2022-10-31T05:28:10.737Z,2.65
2022-10-31T05:30:38.474Z,2.90
2022-10-31T05:33:09.116Z,3.10
2022-10-31T05:36:11.391Z,2.78
2022-10-31T05:39:04.254Z,2.88
2022-10-31T05:41:35.687Z,3.00
2022-10-31T05:44:09.961Z,2.63
2022-10-31T05:46:52.016Z,2.90
2022-10-31T05:49:37.010Z,2.63
2022-10-31T05:52:24.026Z,2.75
2022-10-31T05:54:58.175Z,2.90
2022-10-31T05:57:25.235Z,2.50
2022-10-31T05:59:59.620Z,2.95
2022-10-31T06:02:27.735Z,3.17
2022-10-31T06:05:17.731Z,3.10
2022-10-31T06:07:44.605Z,2.85
2022-10-31T06:10:12.091Z,3.10
2022-10-31T06:12:39.024Z,3.00
2022-10-31T06:15:24.198Z,3.00
2022-10-31T06:18:04.654Z,3.08
2022-10-31T06:20:35.641Z,2.83
2022-10-31T06:23:16.699Z,3.20
2022-10-31T06:25:50.703Z,3.17
2022-10-31T06:28:17.807Z,3.90
2022-10-31T06:30:50.940Z,3.58
2022-10-31T06:33:22.631Z,3.30
2022-10-31T06:36:01.840Z,3.20
2022-10-31T06:38:29.309Z,3.08
2022-10-31T06:40:57.425Z,2.65
2022-10-31T06:43:27.190Z,2.53
2022-10-31T06:46:12.405Z,3.30
2022-10-31T06:48:43.738Z,2.92
2022-10-31T06:51:17.504Z,3.07
2022-10-31T06:53:44.369Z,3.03
2022-10-31T06:56:13.000Z,3.40
2022-10-31T06:58:49.716Z,3.13
2022-10-31T07:01:20.167Z,3.10
2022-10-31T07:03:48.284Z,3.05
2022-10-31T07:06:15.087Z,3.60
2022-10-31T07:08:55.798Z,4.55
2022-10-31T07:11:29.444Z,4.22
2022-10-31T07:13:57.644Z,3.75
2022-10-31T07:16:24.611Z,4.00
2022-10-31T07:18:51.545Z,3.83
2022-10-31T07:21:18.403Z,3.75
2022-10-31T07:23:49.624Z,3.70
2022-10-31T07:26:43.349Z,4.05
2022-10-31T07:29:10.663Z,4.30
2022-10-31T07:31:52.028Z,3.70
2022-10-31T07:34:25.968Z,3.28
2022-10-31T07:37:11.519Z,3.20
2022-10-31T07:39:38.376Z,3.17
2022-10-31T07:42:07.026Z,2.95
2022-10-31T07:44:34.985Z,2.75
2022-10-31T07:47:20.439Z,3.20
2022-10-31T07:50:08.577Z,2.90
2022-10-31T07:53:05.965Z,3.20
2022-10-31T07:55:45.211Z,2.65
2022-10-31T07:58:15.636Z,3.10
2022-10-31T08:00:45.620Z,2.60
2022-10-31T08:03:18.664Z,2.70
2022-10-31T08:05:51.161Z,2.80
2022-10-31T08:08:31.254Z,2.95
2022-10-31T08:11:00.247Z,2.70
2022-10-31T08:13:40.853Z,3.03
2022-10-31T08:16:08.410Z,2.70
2022-10-31T08:18:38.743Z,2.70
2022-10-31T08:21:08.858Z,2.38
2022-10-31T08:23:35.991Z,2.35
2022-10-31T08:26:03.359Z,2.75
2022-10-31T08:28:30.336Z,2.10
2022-10-31T08:30:58.841Z,2.25
2022-10-31T08:33:40.386Z,2.40
2022-10-31T08:36:32.940Z,2.40
2022-10-31T08:39:02.140Z,2.53
2022-10-31T08:41:30.292Z,2.10
2022-10-31T08:43:58.577Z,2.40
2022-10-31T08:46:25.660Z,1.90
2022-10-31T08:48:52.396Z,1.90
2022-10-31T08:51:20.401Z,2.30
2022-10-31T08:53:50.794Z,1.95
2022-10-31T08:56:43.465Z,2.53
2022-10-31T08:59:24.088Z,2.00
2022-10-31T09:02:13.579Z,2.40
2022-10-31T09:04:40.463Z,2.17
2022-10-31T09:07:22.495Z,2.25
2022-10-31T09:09:49.297Z,2.40
2022-10-31T09:12:17.416Z,2.30
2022-10-31T09:15:03.269Z,2.72
2022-10-31T09:17:53.573Z,2.65
2022-10-31T09:20:46.384Z,2.50
2022-10-31T09:23:15.422Z,2.80
2022-10-31T09:25:49.126Z,2.42
2022-10-31T09:28:36.352Z,2.70
2022-10-31T09:31:08.173Z,2.95
2022-10-31T09:33:55.625Z,2.70
2022-10-31T09:36:46.929Z,2.50
2022-10-31T09:39:21.199Z,2.50
2022-10-31T09:42:09.118Z,3.30
2022-10-31T09:44:54.164Z,2.50
2022-10-31T09:47:56.912Z,2.83
2022-10-31T09:50:42.113Z,3.00
2022-10-31T09:56:16.154Z,2.10
2022-10-31T09:58:54.778Z,2.65
2022-10-31T10:01:46.092Z,2.25
2022-10-31T10:04:44.438Z,2.22
2022-10-31T10:07:31.648Z,2.75
2022-10-31T10:10:16.923Z,2.10
2022-10-31T10:13:46.504Z,1.98
2022-10-31T10:16:24.310Z,2.00
2022-10-31T10:19:06.170Z,2.13
2022-10-31T10:21:59.727Z,1.90
2022-10-31T10:24:35.778Z,1.90
2022-10-31T10:27:23.330Z,1.60
2022-10-31T10:30:28.659Z,1.75
2022-10-31T10:33:18.241Z,1.95
2022-10-31T10:35:50.110Z,1.90
2022-10-31T10:38:20.145Z,2.30
2022-10-31T10:40:47.832Z,2.10
2022-10-31T10:43:40.173Z,1.85
2022-10-31T10:46:57.932Z,1.80
2022-10-31T10:49:31.747Z,1.80
2022-10-31T10:52:19.379Z,1.90
2022-10-31T10:55:15.229Z,1.90
2022-10-31T10:58:04.480Z,1.85
2022-10-31T11:00:39.015Z,2.10
2022-10-31T11:03:06.704Z,1.80
2022-10-31T11:05:43.156Z,2.15
2022-10-31T11:08:10.308Z,1.90
2022-10-31T11:10:37.441Z,2.20
2022-10-31T11:13:21.241Z,2.15
2022-10-31T11:15:56.887Z,2.15
2022-10-31T11:21:06.278Z,2.00
2022-10-31T11:23:34.157Z,2.03
2022-10-31T11:26:03.836Z,1.70
2022-10-31T11:28:33.369Z,2.10
2022-10-31T11:31:06.557Z,1.50
2022-10-31T11:34:01.570Z,2.00
2022-10-31T11:36:31.903Z,2.10
2022-10-31T11:39:00.787Z,1.58
2022-10-31T11:41:46.524Z,2.13
2022-10-31T11:44:17.484Z,2.10
2022-10-31T11:46:48.689Z,2.08
2022-10-31T11:49:33.678Z,2.28
2022-10-31T11:54:45.931Z,1.60
2022-10-31T11:57:34.504Z,1.85
2022-10-31T12:00:04.454Z,1.88
2022-10-31T12:02:45.892Z,1.77
2022-10-31T12:05:33.713Z,1.70
2022-10-31T12:08:04.292Z,1.63
2022-10-31T12:10:42.865Z,1.40
2022-10-31T12:13:46.251Z,1.58
2022-10-31T12:16:19.839Z,1.60
2022-10-31T12:19:07.014Z,1.98
2022-10-31T12:21:56.432Z,1.77
2022-10-31T12:24:31.970Z,1.45
2022-10-31T12:27:37.625Z,1.33
2022-10-31T12:33:31.794Z,1.30
2022-10-31T12:36:19.844Z,1.80
2022-10-31T12:39:26.849Z,1.55
2022-10-31T12:42:09.379Z,1.80
2022-10-31T12:45:01.926Z,1.60
2022-10-31T12:47:31.857Z,1.50
2022-10-31T12:50:31.284Z,1.70
2022-10-31T12:53:01.340Z,1.88
2022-10-31T12:56:09.872Z,1.60
2022-10-31T12:59:05.519Z,1.50
2022-10-31T13:01:41.870Z,1.63
2022-10-31T13:04:24.660Z,1.90
2022-10-31T13:06:59.366Z,1.77
2022-10-31T13:09:37.589Z,1.77
2022-10-31T13:12:16.343Z,1.75
2022-10-31T13:14:52.707Z,1.90
2022-10-31T13:17:44.394Z,2.05
2022-10-31T13:20:17.040Z,1.85
2022-10-31T13:22:47.819Z,1.70
2022-10-31T13:25:26.359Z,1.92
2022-10-31T13:28:03.969Z,2.10
2022-10-31T13:30:37.373Z,1.92
2022-10-31T13:33:26.531Z,1.95
2022-10-31T13:36:05.293Z,1.92
2022-10-31T13:38:49.632Z,2.00
2022-10-31T13:41:28.454Z,1.95
2022-10-31T13:43:58.217Z,2.13
2022-10-31T13:46:26.996Z,1.88
2022-10-31T13:48:53.978Z,2.00
2022-10-31T13:51:29.379Z,1.90
2022-10-31T13:53:56.047Z,2.20
2022-10-31T13:56:26.802Z,1.90
2022-10-31T13:59:14.149Z,2.13
2022-10-31T14:01:52.413Z,2.28
2022-10-31T14:04:25.469Z,2.28
2022-10-31T14:07:15.027Z,5.00
2022-10-31T14:09:56.028Z,6.47
2022-10-31T14:12:41.509Z,4.65
2022-10-31T14:15:19.110Z,3.67
2022-10-31T14:17:50.975Z,3.03
2022-10-31T14:20:17.660Z,2.67
2022-10-31T14:22:44.656Z,2.85
2022-10-31T14:25:33.539Z,2.45
2022-10-31T14:28:03.440Z,2.30
2022-10-31T14:30:32.132Z,2.28
2022-10-31T14:33:02.103Z,2.30
2022-10-31T14:36:06.717Z,2.13
2022-10-31T14:38:45.768Z,2.50
2022-10-31T14:41:33.993Z,2.30
2022-10-31T14:44:11.254Z,2.42
2022-10-31T14:46:51.404Z,2.65
2022-10-31T14:49:42.555Z,1.98
2022-10-31T14:52:13.745Z,2.15
2022-10-31T14:54:46.838Z,2.03
2022-10-31T14:57:20.422Z,2.20
2022-10-31T14:59:51.772Z,2.30
2022-10-31T15:02:45.130Z,2.08
2022-10-31T15:05:13.962Z,2.17
2022-10-31T15:07:58.642Z,1.95
2022-10-31T15:10:35.791Z,2.05
2022-10-31T15:13:17.192Z,1.70
2022-10-31T15:15:48.249Z,2.15
2022-10-31T15:18:24.249Z,2.05
2022-10-31T15:20:52.417Z,2.20
2022-10-31T15:23:28.458Z,1.90
2022-10-31T15:26:03.793Z,1.83
2022-10-31T15:28:32.211Z,1.88
2022-10-31T15:31:02.481Z,1.60
2022-10-31T15:33:46.915Z,1.77
2022-10-31T15:36:28.681Z,2.20
2022-10-31T15:39:00.817Z,1.80
2022-10-31T15:41:33.314Z,1.80
2022-10-31T15:44:12.837Z,1.85
2022-10-31T15:46:45.976Z,2.10
2022-10-31T15:49:30.594Z,2.08
2022-10-31T15:52:00.859Z,2.47
2022-10-31T15:54:28.107Z,2.22
2022-10-31T15:56:54.941Z,2.65
2022-10-31T15:59:24.545Z,2.58
2022-10-31T16:02:03.210Z,2.40
2022-10-31T16:04:31.498Z,2.40
2022-10-31T16:07:12.300Z,2.30
2022-10-31T16:09:53.585Z,2.50
2022-10-31T16:12:22.764Z,2.08
2022-10-31T16:14:54.191Z,2.38
2022-10-31T16:17:25.359Z,2.30
2022-10-31T16:19:54.613Z,1.95
2022-10-31T16:22:25.703Z,2.00
2022-10-31T16:25:00.588Z,2.00
2022-10-31T16:27:31.009Z,1.90
2022-10-31T16:30:02.394Z,2.08
2022-10-31T16:32:37.038Z,2.15
2022-10-31T16:35:12.547Z,2.00
2022-10-31T16:37:42.792Z,2.00
2022-10-31T16:40:15.068Z,1.98
2022-10-31T16:42:46.348Z,1.88
2022-10-31T16:45:23.186Z,2.05
2022-10-31T16:47:50.719Z,1.88
2022-10-31T16:50:22.436Z,2.20
2022-10-31T16:56:17.818Z,2.10
2022-10-31T16:58:45.110Z,2.13
2022-10-31T17:01:13.750Z,2.50
2022-10-31T17:03:40.970Z,2.22
2022-10-31T17:06:12.977Z,2.90
2022-10-31T17:08:40.046Z,4.05
2022-10-31T17:11:09.540Z,4.25
2022-10-31T17:13:36.346Z,3.78
2022-10-31T17:16:04.214Z,4.28
2022-10-31T17:18:31.272Z,3.92
2022-10-31T17:21:06.087Z,3.30
2022-10-31T17:26:00.437Z,2.83
2022-10-31T17:28:27.283Z,2.80
2022-10-31T17:30:59.079Z,2.63
2022-10-31T17:33:25.954Z,2.30
2022-10-31T17:35:52.775Z,2.33
2022-10-31T17:38:19.595Z,2.35
2022-10-31T17:43:18.057Z,2.60
2022-10-31T17:45:44.832Z,2.50
2022-10-31T17:48:12.798Z,2.58
2022-10-31T17:50:39.691Z,2.58
2022-10-31T17:53:06.506Z,2.53
2022-10-31T17:55:37.268Z,2.30
2022-10-31T17:58:04.813Z,2.20
2022-10-31T18:00:32.448Z,2.70
2022-10-31T18:03:06.057Z,4.40
2022-10-31T18:05:39.591Z,3.67
2022-10-31T18:08:06.478Z,3.47
2022-10-31T18:10:33.251Z,3.88
2022-10-31T18:13:00.514Z,3.35
2022-10-31T18:15:27.517Z,3.10
2022-10-31T18:17:54.381Z,3.20
2022-10-31T18:20:21.219Z,3.63
2022-10-31T18:22:48.030Z,3.42
2022-10-31T18:25:14.899Z,3.50
2022-10-31T18:27:41.653Z,3.25
2022-10-31T18:30:09.037Z,3.45
2022-10-31T18:32:36.443Z,3.10
2022-10-31T18:35:03.326Z,3.05
2022-10-31T18:37:30.163Z,3.17
2022-10-31T18:39:57.014Z,3.00
2022-10-31T18:42:23.829Z,3.20
2022-10-31T18:44:50.885Z,3.22
2022-10-31T18:47:19.161Z,3.00
2022-10-31T18:49:45.947Z,2.92
2022-10-31T18:52:12.709Z,3.97
2022-10-31T18:54:39.464Z,6.35
2022-10-31T18:57:06.263Z,6.28
2022-10-31T18:59:33.147Z,4.80
2022-10-31T19:02:00.092Z,4.32
2022-10-31T19:04:27.324Z,4.35
2022-10-31T19:06:55.309Z,4.40
2022-10-31T19:09:24.141Z,4.53
2022-10-31T19:11:51.371Z,4.82
2022-10-31T19:14:18.354Z,4.32
2022-10-31T19:16:45.101Z,4.38
2022-10-31T19:19:11.848Z,4.93
2022-10-31T19:21:38.759Z,5.40
2022-10-31T19:24:05.856Z,5.30
2022-10-31T19:26:35.623Z,5.38
2022-10-31T19:29:02.946Z,5.20
2022-10-31T19:31:29.924Z,5.00
2022-10-31T19:33:56.745Z,4.10
2022-10-31T19:36:24.318Z,4.53
2022-10-31T19:38:52.665Z,4.15
2022-10-31T19:41:27.827Z,4.10
2022-10-31T19:43:55.279Z,3.78
2022-10-31T19:46:47.760Z,4.05
2022-10-31T19:49:12.407Z,3.88
2022-10-31T19:51:39.481Z,3.63
2022-10-31T19:54:07.682Z,3.40
2022-10-31T19:56:34.664Z,4.05
2022-10-31T19:59:03.088Z,3.80
2022-10-31T20:01:30.269Z,4.28
2022-10-31T20:03:57.300Z,4.43
2022-10-31T20:06:28.798Z,5.53
2022-10-31T20:08:56.829Z,4.95
2022-10-31T20:11:26.264Z,5.05
2022-10-31T20:13:56.261Z,5.10
2022-10-31T20:16:23.739Z,4.80
2022-10-31T20:18:50.787Z,4.78
2022-10-31T20:21:20.296Z,4.43
2022-10-31T20:23:47.633Z,4.72
2022-10-31T20:26:17.887Z,5.03
2022-10-31T20:28:48.146Z,5.20
2022-10-31T20:31:20.654Z,5.15
2022-10-31T20:33:48.749Z,5.30
2022-10-31T20:36:19.389Z,5.40
2022-10-31T20:38:46.626Z,5.18
2022-10-31T20:41:15.185Z,4.95
2022-10-31T20:43:42.229Z,5.25
2022-10-31T20:46:15.642Z,4.93
2022-10-31T20:48:42.660Z,4.57
2022-10-31T20:53:43.612Z,4.60
2022-10-31T20:56:16.667Z,5.05
2022-10-31T20:58:44.645Z,4.68
2022-10-31T21:01:20.557Z,4.82
2022-10-31T21:03:47.933Z,4.70
2022-10-31T21:06:15.582Z,4.53
2022-10-31T21:08:43.179Z,4.93
2022-10-31T21:11:16.406Z,4.90
2022-10-31T21:13:45.115Z,4.72
2022-10-31T21:16:14.638Z,4.50
2022-10-31T21:18:43.274Z,4.55
2022-10-31T21:21:21.339Z,4.20
2022-10-31T21:23:48.615Z,4.40
2022-10-31T21:26:21.051Z,4.43
2022-10-31T21:28:48.953Z,4.00
2022-10-31T21:31:17.945Z,4.15
2022-10-31T21:33:46.219Z,3.75
2022-10-31T21:36:14.100Z,3.88
2022-10-31T21:38:41.602Z,4.20
2022-10-31T21:41:11.180Z,3.80
2022-10-31T21:43:39.699Z,3.88
2022-10-31T21:46:18.650Z,3.78
2022-10-31T21:48:46.379Z,4.07
2022-10-31T21:51:22.151Z,4.07
2022-10-31T21:54:09.506Z,3.83
2022-10-31T21:56:47.200Z,3.95
2022-10-31T21:59:14.050Z,3.88
2022-10-31T22:01:40.975Z,4.00
2022-10-31T22:04:21.385Z,3.83
2022-10-31T22:06:48.201Z,3.40
2022-10-31T22:09:29.339Z,3.70
2022-10-31T22:12:09.759Z,3.58
2022-10-31T22:17:22.436Z,3.72
2022-10-31T22:19:49.224Z,3.60
2022-10-31T22:22:16.066Z,3.63
2022-10-31T22:24:44.618Z,4.22
2022-10-31T22:27:17.810Z,3.58
2022-10-31T22:30:05.496Z,3.42
2022-10-31T22:32:38.998Z,3.42
2022-10-31T22:35:05.956Z,3.97
2022-10-31T22:37:32.756Z,3.45
2022-10-31T22:39:59.569Z,4.10
2022-10-31T22:42:30.117Z,3.70
2022-10-31T22:44:56.864Z,3.50
2022-10-31T22:47:23.641Z,3.30
2022-10-31T22:49:50.558Z,3.42
2022-10-31T22:52:17.363Z,3.47
2022-10-31T22:54:45.576Z,3.38
2022-10-31T22:57:12.320Z,3.67
2022-10-31T22:59:39.115Z,3.90
2022-10-31T23:02:08.581Z,3.67
2022-10-31T23:04:35.680Z,3.67
2022-10-31T23:07:03.185Z,3.65
2022-10-31T23:09:36.504Z,3.55
2022-10-31T23:12:29.080Z,4.03
2022-10-31T23:14:55.825Z,3.80
2022-10-31T23:17:22.640Z,3.80
2022-10-31T23:19:52.607Z,4.13
2022-10-31T23:22:20.131Z,4.18
2022-10-31T23:24:47.900Z,4.55
2022-10-31T23:27:17.388Z,4.78
2022-10-31T23:29:46.946Z,4.70
2022-10-31T23:32:27.704Z,4.95
2022-10-31T23:34:56.439Z,4.60
2022-10-31T23:37:26.866Z,5.20
2022-10-31T23:39:53.916Z,5.13
2022-10-31T23:42:21.444Z,4.63
2022-10-31T23:44:48.406Z,4.13
2022-10-31T23:47:15.786Z,4.50
2022-10-31T23:49:43.356Z,4.35
2022-10-31T23:52:10.353Z,3.75
2022-10-31T23:54:37.387Z,4.07
2022-10-31T23:57:04.963Z,4.38
2022-10-31T23:59:31.940Z,4.10
